Time;durP1;ratioP1;P1;durP2;ratioP2;P2;SDS_P1;SDS_P2;PMS_P1;PMS_P2;Temp;Humidity;BMP_temperature;BMP_pressure;BME280_temperature;BME280_humidity;BME280_pressure;Samples;Min_cycle;Max_cycle;Signal;HPM_P1;HPM_P2
2022/08/02 00:02:19;;;;;;;1.42;1.30;;;18.30;99.90;;;;;;5086992;28;20028;-73
2022/08/02 00:04:46;;;;;;;2.47;1.23;;;18.20;99.90;;;;;;5088896;28;20097;-73
2022/08/02 00:07:13;;;;;;;2.65;1.88;;;18.20;99.90;;;;;;5093889;28;20063;-74
2022/08/02 00:09:39;;;;;;;2.10;1.85;;;18.20;99.90;;;;;;5091528;28;20388;-74
2022/08/02 00:12:05;;;;;;;2.25;1.60;;;18.20;99.90;;;;;;5104172;28;20028;-74
2022/08/02 00:14:31;;;;;;;2.78;1.92;;;18.20;99.90;;;;;;5105593;28;20031;-74
2022/08/02 00:16:56;;;;;;;2.97;1.80;;;18.20;99.90;;;;;;5107272;28;20036;-74
2022/08/02 00:19:22;;;;;;;5.03;1.92;;;18.20;99.90;;;;;;5103402;28;20050;-74
2022/08/02 00:21:48;;;;;;;2.70;2.00;;;18.30;99.90;;;;;;5104664;28;20516;-74
2022/08/02 00:24:13;;;;;;;2.60;2.28;;;18.40;99.90;;;;;;5105737;28;20044;-74
2022/08/02 00:26:39;;;;;;;3.95;2.20;;;18.40;99.90;;;;;;5096611;28;20477;-74
2022/08/02 00:29:05;;;;;;;2.47;2.28;;;18.50;99.90;;;;;;5108357;28;20024;-74
2022/08/02 00:31:31;;;;;;;3.58;2.20;;;18.60;99.90;;;;;;5101077;28;20030;-74
2022/08/02 00:33:56;;;;;;;3.13;2.20;;;18.70;99.90;;;;;;5105190;28;20024;-74
2022/08/02 00:36:22;;;;;;;3.35;2.28;;;18.70;99.90;;;;;;5104130;28;20030;-74
2022/08/02 00:38:48;;;;;;;4.30;2.88;;;18.70;99.90;;;;;;5104483;28;20084;-74
2022/08/02 00:41:16;;;;;;;4.07;2.67;;;18.70;99.90;;;;;;5108860;28;20110;-74
2022/08/02 00:43:43;;;;;;;3.78;2.30;;;18.70;99.90;;;;;;5096064;28;20078;-74
2022/08/02 00:46:09;;;;;;;3.08;2.40;;;18.70;99.90;;;;;;5108149;28;20032;-74
2022/08/02 00:48:35;;;;;;;2.90;2.38;;;18.80;99.90;;;;;;5110554;28;20032;-74
2022/08/02 00:51:00;;;;;;;2.53;2.25;;;18.80;99.90;;;;;;5107223;28;20024;-74
2022/08/02 00:53:26;;;;;;;3.95;2.60;;;18.80;99.90;;;;;;5109225;28;20378;-74
2022/08/02 00:55:52;;;;;;;2.95;2.20;;;18.80;99.90;;;;;;5106157;28;20030;-74
2022/08/02 00:58:17;;;;;;;3.75;2.20;;;18.90;99.90;;;;;;5090348;28;20050;-74
2022/08/02 01:00:43;;;;;;;4.50;2.05;;;18.90;99.90;;;;;;5094851;28;20019;-74
2022/08/02 01:03:09;;;;;;;6.10;2.33;;;18.90;99.90;;;;;;5108448;28;20027;-74
2022/08/02 01:05:34;;;;;;;2.22;1.92;;;18.90;99.90;;;;;;5106409;28;20048;-74
2022/08/02 01:08:01;;;;;;;3.17;2.63;;;18.90;99.90;;;;;;5108071;28;20059;-74
2022/08/02 01:10:27;;;;;;;2.25;2.05;;;18.90;99.90;;;;;;5110149;28;20028;-74
2022/08/02 01:12:52;;;;;;;2.50;2.03;;;18.90;99.90;;;;;;5102984;28;20024;-74
2022/08/02 01:15:19;;;;;;;2.30;2.00;;;18.80;99.90;;;;;;5107658;28;20380;-74
2022/08/02 01:17:50;;;;;;;3.03;1.95;;;18.80;99.90;;;;;;5100521;28;20405;-74
2022/08/02 01:20:33;;;;;;;2.38;2.20;;;18.70;99.90;;;;;;5092804;28;20028;-74
2022/08/02 01:23:26;;;;;;;3.05;2.08;;;18.60;99.90;;;;;;5107919;28;20162;-74
2022/08/02 01:26:12;;;;;;;1.92;1.70;;;18.60;99.90;;;;;;5104684;28;20388;-74
2022/08/02 01:28:57;;;;;;;2.20;2.10;;;18.60;99.90;;;;;;5100840;28;20385;-74
2022/08/02 01:31:33;;;;;;;3.15;2.35;;;18.50;99.90;;;;;;5108327;28;20020;-74
2022/08/02 01:34:23;;;;;;;3.30;2.25;;;18.50;99.90;;;;;;5097940;28;20408;-74
2022/08/02 01:36:57;;;;;;;3.45;2.30;;;18.50;99.90;;;;;;5101257;28;20100;-74
2022/08/02 01:39:27;;;;;;;2.83;1.77;;;18.50;99.90;;;;;;5092927;28;20106;-74
2022/08/02 01:41:55;;;;;;;1.73;1.63;;;18.50;99.90;;;;;;5084608;28;20119;-74
2022/08/02 01:44:23;;;;;;;4.28;2.00;;;18.60;99.90;;;;;;5105097;28;20078;-75
2022/08/02 01:46:50;;;;;;;2.50;1.60;;;18.60;99.90;;;;;;5100313;28;20028;-75
2022/08/02 01:49:20;;;;;;;2.55;1.80;;;18.60;99.90;;;;;;5102934;28;20032;-75
2022/08/02 01:54:33;;;;;;;2.03;1.80;;;18.70;99.90;;;;;;5106081;28;20042;-74
2022/08/02 01:57:03;;;;;;;2.30;1.80;;;18.70;99.90;;;;;;5102085;28;20039;-74
2022/08/02 01:59:31;;;;;;;4.25;2.47;;;18.70;99.90;;;;;;5106272;28;20023;-74
2022/08/02 02:01:58;;;;;;;2.92;1.70;;;18.70;99.90;;;;;;5104203;28;20039;-74
2022/08/02 02:04:25;;;;;;;2.63;2.40;;;18.60;99.90;;;;;;5102617;28;20031;-74
2022/08/02 02:06:52;;;;;;;1.83;1.70;;;18.70;99.90;;;;;;5108215;28;20081;-75
2022/08/02 02:09:19;;;;;;;1.90;1.70;;;18.70;99.90;;;;;;5088780;28;20028;-75
2022/08/02 02:11:47;;;;;;;2.50;1.90;;;18.60;99.90;;;;;;5094429;28;20031;-75
2022/08/02 02:14:15;;;;;;;1.80;1.70;;;18.60;99.90;;;;;;5108004;28;20370;-74
2022/08/02 02:16:43;;;;;;;4.75;2.40;;;18.60;99.90;;;;;;5105141;28;20024;-75
2022/08/02 02:19:11;;;;;;;5.20;2.53;;;18.50;99.90;;;;;;5106018;28;20089;-75
2022/08/02 02:21:37;;;;;;;3.60;2.15;;;18.50;99.90;;;;;;5099034;28;20048;-74
2022/08/02 02:24:03;;;;;;;1.77;1.67;;;18.40;99.90;;;;;;5087892;28;20058;-74
2022/08/02 02:26:30;;;;;;;2.47;2.10;;;18.40;99.90;;;;;;5079229;28;20021;-74
2022/08/02 02:29:00;;;;;;;2.25;1.88;;;18.30;99.90;;;;;;5086607;28;20082;-74
2022/08/02 02:31:31;;;;;;;1.97;1.53;;;18.30;99.90;;;;;;5085465;28;20031;-75
2022/08/02 02:34:02;;;;;;;3.17;1.80;;;18.30;99.90;;;;;;5087591;28;20024;-75
2022/08/02 02:36:29;;;;;;;1.95;1.77;;;18.20;99.90;;;;;;5088626;28;20032;-74
2022/08/02 02:38:59;;;;;;;2.63;1.80;;;18.20;99.90;;;;;;5058436;28;20066;-75
2022/08/02 02:41:25;;;;;;;2.13;1.75;;;18.10;99.90;;;;;;5081976;28;20085;-75
2022/08/02 02:43:54;;;;;;;2.15;1.80;;;18.10;99.90;;;;;;5077901;28;20035;-75
2022/08/02 02:46:21;;;;;;;2.63;2.08;;;18.00;99.90;;;;;;5083498;28;20031;-75
2022/08/02 02:48:50;;;;;;;2.40;2.20;;;18.00;99.90;;;;;;5086521;28;20031;-75
2022/08/02 02:51:16;;;;;;;2.13;1.92;;;17.90;99.90;;;;;;5089657;28;20032;-75
2022/08/02 02:53:43;;;;;;;2.47;2.08;;;17.80;99.90;;;;;;5082190;28;20037;-75
2022/08/02 02:56:10;;;;;;;2.08;1.88;;;17.80;99.90;;;;;;5087586;28;20517;-75
2022/08/02 02:58:37;;;;;;;2.10;1.95;;;17.70;99.90;;;;;;5045825;28;20029;-75
2022/08/02 03:03:50;;;;;;;2.05;1.88;;;17.60;99.90;;;;;;5081325;28;20044;-74
2022/08/02 03:06:16;;;;;;;2.45;1.67;;;17.50;99.90;;;;;;5082236;28;20105;-74
2022/08/02 03:08:42;;;;;;;2.25;2.08;;;17.50;99.90;;;;;;5077409;28;20049;-74
2022/08/02 03:11:09;;;;;;;2.88;1.88;;;17.50;99.90;;;;;;5065630;28;20074;-74
2022/08/02 03:13:36;;;;;;;4.32;2.10;;;17.40;99.90;;;;;;5065635;28;20037;-74
2022/08/02 03:16:02;;;;;;;3.50;2.13;;;17.40;99.90;;;;;;5069509;28;20032;-74
2022/08/02 03:18:39;;;;;;;4.55;1.92;;;17.30;99.90;;;;;;5068611;28;20028;-75
2022/08/02 03:21:12;;;;;;;2.15;1.90;;;17.30;99.90;;;;;;5049958;28;20055;-73
2022/08/02 03:23:39;;;;;;;2.35;2.13;;;17.30;99.90;;;;;;5086948;28;20058;-73
2022/08/02 03:26:06;;;;;;;2.42;2.10;;;17.20;99.90;;;;;;5086112;28;20027;-73
2022/08/02 03:28:32;;;;;;;4.85;2.20;;;17.20;99.90;;;;;;5085274;28;20064;-74
2022/08/02 03:30:57;;;;;;;1.95;1.85;;;17.20;99.90;;;;;;5085170;28;20081;-74
2022/08/02 03:33:25;;;;;;;2.60;2.30;;;17.30;99.90;;;;;;5081257;28;20028;-74
2022/08/02 03:35:53;;;;;;;2.90;1.70;;;17.30;99.90;;;;;;5082713;28;20343;-73
2022/08/02 03:38:21;;;;;;;2.38;2.17;;;17.30;99.90;;;;;;5072182;28;20029;-74
2022/08/02 03:40:48;;;;;;;4.32;1.95;;;17.30;99.90;;;;;;5064893;28;20397;-73
2022/08/02 03:43:15;;;;;;;3.33;2.35;;;17.20;99.90;;;;;;5067193;28;20460;-73
2022/08/02 03:45:46;;;;;;;3.22;1.98;;;17.20;99.90;;;;;;5067136;28;20100;-73
2022/08/02 03:48:13;;;;;;;2.25;1.95;;;17.20;99.90;;;;;;5082438;28;20020;-72
2022/08/02 03:50:40;;;;;;;2.90;2.10;;;17.20;99.90;;;;;;5085756;28;20080;-73
2022/08/02 03:53:06;;;;;;;2.45;2.20;;;17.20;99.90;;;;;;5078601;28;20037;-73
2022/08/02 03:55:33;;;;;;;3.03;2.47;;;17.10;99.90;;;;;;5069757;28;20553;-73
2022/08/02 03:57:59;;;;;;;3.60;2.25;;;17.10;99.90;;;;;;5073322;28;20469;-73
2022/08/02 04:00:25;;;;;;;6.10;2.38;;;17.10;99.90;;;;;;5076686;28;20028;-73
2022/08/02 04:02:51;;;;;;;2.22;2.03;;;17.10;99.90;;;;;;5081584;28;20516;-73
2022/08/02 04:05:17;;;;;;;3.15;2.00;;;17.10;99.90;;;;;;5088530;28;20088;-73
2022/08/02 04:07:44;;;;;;;2.67;2.25;;;17.10;99.90;;;;;;5082134;28;20058;-73
2022/08/02 04:10:10;;;;;;;4.47;2.45;;;17.10;99.90;;;;;;5089232;28;20025;-73
2022/08/02 04:12:36;;;;;;;2.35;2.03;;;17.10;99.90;;;;;;5080772;28;20029;-73
2022/08/02 04:15:04;;;;;;;3.08;2.20;;;17.10;99.90;;;;;;5085235;28;20032;-73
2022/08/02 04:17:32;;;;;;;3.58;2.45;;;17.10;99.90;;;;;;5081674;28;20059;-73
2022/08/02 04:20:05;;;;;;;2.35;2.15;;;17.10;99.90;;;;;;5086585;28;20024;-73
2022/08/02 04:22:41;;;;;;;4.47;2.35;;;17.10;99.90;;;;;;5083846;27;20107;-75
2022/08/02 04:25:09;;;;;;;2.63;2.15;;;17.10;99.90;;;;;;5085117;28;20028;-75
2022/08/02 04:27:36;;;;;;;3.58;2.47;;;17.20;99.90;;;;;;5076240;28;20032;-75
2022/08/02 04:30:04;;;;;;;3.00;2.30;;;17.20;99.90;;;;;;5091010;28;20040;-75
2022/08/02 04:32:31;;;;;;;5.05;3.00;;;17.30;99.90;;;;;;5087944;28;20107;-75
2022/08/02 04:34:57;;;;;;;2.83;2.30;;;17.30;99.90;;;;;;5073772;28;20036;-75
2022/08/02 04:37:24;;;;;;;3.65;2.60;;;17.40;99.90;;;;;;5067510;28;20033;-75
2022/08/02 04:39:50;;;;;;;3.45;2.72;;;17.40;99.90;;;;;;5087600;28;20024;-75
2022/08/02 04:42:23;;;;;;;2.70;2.15;;;17.40;99.90;;;;;;5086989;28;20043;-75
2022/08/02 04:44:49;;;;;;;2.40;2.20;;;17.50;99.90;;;;;;5088713;28;20043;-75
2022/08/02 04:47:15;;;;;;;2.55;2.30;;;17.50;99.90;;;;;;5082524;28;20504;-72
2022/08/02 04:49:41;;;;;;;3.83;2.50;;;17.60;99.90;;;;;;5088735;28;20032;-75
2022/08/02 04:52:07;;;;;;;3.28;2.28;;;17.60;99.90;;;;;;5088251;28;20032;-75
2022/08/02 04:54:33;;;;;;;3.05;2.30;;;17.70;99.90;;;;;;5076701;28;20043;-75
2022/08/02 04:56:58;;;;;;;2.42;2.22;;;17.80;99.90;;;;;;5088270;28;20028;-75
2022/08/02 04:59:24;;;;;;;1.90;1.80;;;17.80;99.90;;;;;;5084674;28;20028;-75
2022/08/02 05:01:49;;;;;;;6.85;2.25;;;17.90;99.90;;;;;;5088247;28;20028;-75
2022/08/02 05:04:15;;;;;;;4.80;2.03;;;18.00;99.90;;;;;;5081867;28;20031;-75
2022/08/02 05:06:41;;;;;;;3.35;1.95;;;18.10;99.90;;;;;;5087411;28;20028;-75
2022/08/02 05:09:06;;;;;;;2.72;2.10;;;18.20;99.90;;;;;;5092612;28;20117;-75
2022/08/02 05:11:32;;;;;;;4.28;2.05;;;18.30;99.90;;;;;;5074355;28;20480;-75
2022/08/02 05:13:57;;;;;;;3.72;2.05;;;18.40;99.90;;;;;;5069071;28;20036;-74
2022/08/02 05:16:24;;;;;;;2.20;2.00;;;18.50;99.90;;;;;;5071535;28;20469;-74
2022/08/02 05:18:50;;;;;;;2.53;2.30;;;18.60;99.90;;;;;;5074741;28;20486;-74
2022/08/02 05:21:16;;;;;;;2.90;2.47;;;18.80;99.90;;;;;;5075324;27;20165;-73
2022/08/02 05:23:42;;;;;;;4.47;2.45;;;19.00;99.90;;;;;;5072159;28;20028;-74
2022/08/02 05:26:08;;;;;;;4.65;2.00;;;19.10;99.90;;;;;;5077176;28;20028;-73
2022/08/02 05:28:33;;;;;;;4.18;2.30;;;19.20;99.90;;;;;;5076420;28;20109;-73
2022/08/02 05:30:59;;;;;;;4.18;2.95;;;19.40;99.90;;;;;;5072798;28;20024;-73
2022/08/02 05:33:25;;;;;;;2.42;1.92;;;19.50;99.90;;;;;;5072594;28;20028;-74
2022/08/02 05:35:50;;;;;;;2.35;2.10;;;19.50;99.90;;;;;;5079723;28;20108;-74
2022/08/02 05:38:16;;;;;;;3.17;2.15;;;19.60;99.90;;;;;;5082977;28;20024;-73
2022/08/02 05:40:42;;;;;;;6.03;2.25;;;19.70;99.90;;;;;;5086671;28;20032;-77
2022/08/02 05:43:14;;;;;;;4.72;2.38;;;19.80;99.90;;;;;;5085278;28;20059;-74
2022/08/02 05:45:40;;;;;;;3.92;2.35;;;19.90;99.90;;;;;;5091590;28;20024;-73
2022/08/02 05:48:06;;;;;;;4.43;2.58;;;19.90;99.90;;;;;;5083915;28;20024;-73
2022/08/02 05:50:36;;;;;;;2.75;2.15;;;20.00;99.90;;;;;;5076156;28;20470;-72
2022/08/02 05:53:08;;;;;;;;;;;20.00;99.90;;;;;;5080050;28;20032;-72
2022/08/02 05:55:38;;;;;;;5.13;2.38;;;20.10;99.90;;;;;;5089243;28;19916;-73
2022/08/02 05:58:37;;;;;;;2.75;2.15;;;20.20;99.90;;;;;;5079583;28;20035;-74
2022/08/02 06:01:03;;;;;;;5.57;2.70;;;20.30;99.90;;;;;;5084783;28;20388;-80
2022/08/02 06:03:39;;;;;;;4.68;2.55;;;20.50;99.90;;;;;;5084629;28;20030;-77
2022/08/02 06:06:13;;;;;;;4.03;2.00;;;20.50;99.90;;;;;;5081076;28;20103;-75
2022/08/02 06:08:44;;;;;;;2.30;2.10;;;20.50;99.90;;;;;;5083715;28;20032;-74
2022/08/02 06:11:17;;;;;;;2.05;1.88;;;20.50;99.90;;;;;;5077619;28;20469;-74
2022/08/02 06:13:45;;;;;;;3.30;2.80;;;20.50;99.90;;;;;;5078774;28;20442;-75
2022/08/02 06:16:10;;;;;;;2.67;2.40;;;20.60;99.90;;;;;;5085454;28;20043;-75
2022/08/02 06:18:37;;;;;;;3.08;2.03;;;20.70;99.90;;;;;;5077793;28;20024;-76
2022/08/02 06:21:04;;;;;;;6.65;2.75;;;20.80;99.90;;;;;;5085120;28;20036;-75
2022/08/02 06:23:31;;;;;;;2.58;2.20;;;20.90;99.90;;;;;;5088536;28;20024;-75
2022/08/02 06:25:58;;;;;;;3.40;2.30;;;20.90;99.90;;;;;;5079379;28;20030;-75
2022/08/02 06:28:25;;;;;;;4.20;2.50;;;21.00;99.90;;;;;;5065520;28;20813;-75
2022/08/02 06:30:52;;;;;;;4.50;2.75;;;21.10;99.90;;;;;;5072836;28;20033;-75
2022/08/02 06:33:17;;;;;;;5.60;2.90;;;21.20;99.90;;;;;;5090050;28;20055;-75
2022/08/02 06:35:49;;;;;;;5.28;3.00;;;21.30;99.90;;;;;;5084717;28;20469;-75
2022/08/02 06:38:20;;;;;;;5.30;3.15;;;21.30;99.90;;;;;;5090636;28;20043;-75
2022/08/02 06:41:16;;;;;;;4.70;2.92;;;21.50;99.90;;;;;;5084627;28;20032;-75
2022/08/02 06:43:59;;;;;;;4.93;3.20;;;21.60;99.90;;;;;;5063916;28;20032;-75
2022/08/02 06:46:26;;;;;;;5.72;3.38;;;21.60;99.90;;;;;;5077241;28;20526;-75
2022/08/02 06:48:51;;;;;;;6.07;4.05;;;21.70;99.90;;;;;;5086508;28;20457;-75
2022/08/02 06:51:17;;;;;;;4.32;3.10;;;21.70;99.90;;;;;;5082936;28;20038;-74
2022/08/02 06:53:43;;;;;;;5.50;3.00;;;21.60;99.90;;;;;;5066751;28;20036;-73
2022/08/02 06:56:09;;;;;;;6.88;3.58;;;21.60;99.90;;;;;;5063731;28;20107;-74
2022/08/02 06:58:35;;;;;;;6.32;3.50;;;21.60;99.90;;;;;;5059306;28;20069;-75
2022/08/02 07:01:01;;;;;;;10.98;4.18;;;21.60;99.90;;;;;;5073519;28;20033;-74
2022/08/02 07:03:27;;;;;;;8.52;4.53;;;21.70;99.90;;;;;;5071130;28;20033;-80
2022/08/02 07:05:53;;;;;;;7.00;3.80;;;21.80;99.90;;;;;;5064473;28;20061;-75
2022/08/02 07:08:19;;;;;;;4.82;3.38;;;21.90;99.90;;;;;;5066243;28;20660;-75
2022/08/02 07:10:45;;;;;;;4.68;3.10;;;21.90;99.90;;;;;;5071100;28;20465;-75
2022/08/02 07:13:11;;;;;;;4.35;3.40;;;22.10;99.90;;;;;;5057316;28;20040;-74
2022/08/02 07:15:37;;;;;;;10.35;4.18;;;22.10;99.90;;;;;;5072118;28;20075;-76
2022/08/02 07:18:04;;;;;;;4.15;2.92;;;22.20;99.90;;;;;;5069464;28;20067;-76
2022/08/02 07:20:30;;;;;;;6.82;3.80;;;22.30;99.90;;;;;;5063860;28;20068;-77
2022/08/02 07:22:55;;;;;;;6.82;3.67;;;22.50;99.90;;;;;;5061820;28;20048;-75
2022/08/02 07:25:21;;;;;;;6.47;4.22;;;22.50;99.90;;;;;;5063828;28;20033;-75
2022/08/02 07:27:47;;;;;;;5.18;3.30;;;22.60;99.90;;;;;;5057666;28;20122;-75
2022/08/02 07:30:12;;;;;;;5.25;3.85;;;22.60;99.90;;;;;;5058224;28;20059;-76
2022/08/02 07:32:38;;;;;;;8.80;3.90;;;22.60;99.90;;;;;;5070950;28;20040;-75
2022/08/02 07:35:06;;;;;;;7.10;3.20;;;22.70;99.90;;;;;;5073477;28;20086;-74
2022/08/02 07:37:33;;;;;;;5.85;3.10;;;22.90;99.90;;;;;;5070531;28;20464;-80
2022/08/02 07:39:58;;;;;;;5.43;3.70;;;23.00;99.90;;;;;;5048315;28;20484;-75
2022/08/02 07:42:24;;;;;;;5.97;3.75;;;23.20;99.90;;;;;;5069683;28;20041;-76
2022/08/02 07:44:50;;;;;;;6.30;4.10;;;23.30;99.90;;;;;;5059522;28;20361;-75
2022/08/02 07:47:16;;;;;;;5.97;3.80;;;23.50;99.90;;;;;;5064478;28;20423;-75
2022/08/02 07:49:42;;;;;;;6.25;3.63;;;23.30;99.90;;;;;;5069760;28;20020;-75
2022/08/02 07:52:08;;;;;;;6.13;4.50;;;23.30;99.90;;;;;;5067121;28;20032;-75
2022/08/02 07:54:33;;;;;;;5.72;4.13;;;23.40;99.90;;;;;;5070283;28;20024;-75
2022/08/02 07:56:59;;;;;;;4.82;3.60;;;23.30;99.90;;;;;;5063125;28;20029;-75
2022/08/02 07:59:26;;;;;;;4.22;3.55;;;23.40;99.90;;;;;;5071194;28;20060;-76
2022/08/02 08:01:51;;;;;;;7.10;3.78;;;23.40;99.90;;;;;;5069390;28;20044;-74
2022/08/02 08:04:17;;;;;;;4.97;3.38;;;23.50;99.90;;;;;;5079613;28;20035;-74
2022/08/02 08:06:43;;;;;;;5.80;4.20;;;23.60;99.90;;;;;;5074615;28;21745;-75
2022/08/02 08:09:10;;;;;;;5.57;4.88;;;23.80;99.90;;;;;;5074321;28;20493;-75
2022/08/02 08:11:35;;;;;;;6.72;3.83;;;23.80;99.90;;;;;;5056193;28;20543;-75
2022/08/02 08:14:01;;;;;;;5.43;3.58;;;23.80;99.90;;;;;;5063908;28;20071;-75
2022/08/02 08:16:27;;;;;;;3.78;3.17;;;23.80;99.90;;;;;;5069285;28;20064;-76
2022/08/02 08:18:54;;;;;;;7.18;3.20;;;23.90;99.90;;;;;;5052230;28;20032;-75
2022/08/02 08:21:19;;;;;;;6.38;3.88;;;24.10;99.90;;;;;;5069677;28;20041;-75
2022/08/02 08:23:45;;;;;;;6.40;3.35;;;24.20;99.90;;;;;;5071970;28;20361;-75
2022/08/02 08:26:11;;;;;;;6.07;3.83;;;24.20;99.90;;;;;;5064147;28;20385;-75
2022/08/02 08:28:36;;;;;;;5.90;3.70;;;24.40;99.90;;;;;;5069145;28;20029;-75
2022/08/02 08:31:02;;;;;;;4.88;3.30;;;24.50;99.90;;;;;;5067816;28;20157;-75
2022/08/02 08:33:28;;;;;;;5.05;2.85;;;24.60;99.90;;;;;;5073478;28;20031;-82
2022/08/02 08:35:54;;;;;;;6.45;3.78;;;24.70;99.90;;;;;;5070627;28;20242;-76
2022/08/02 08:38:20;;;;;;;8.80;3.70;;;24.80;99.90;;;;;;5073579;28;20385;-74
2022/08/02 08:40:48;;;;;;;5.07;4.00;;;24.90;99.90;;;;;;5073380;28;20032;-75
2022/08/02 08:43:14;;;;;;;7.18;4.47;;;25.00;99.90;;;;;;5072331;28;20089;-75
2022/08/02 08:45:45;;;;;;;6.78;4.80;;;24.90;99.90;;;;;;5069464;28;20024;-75
2022/08/02 08:48:17;;;;;;;4.18;3.78;;;24.90;99.90;;;;;;5070849;28;20526;-76
2022/08/02 08:50:55;;;;;;;10.02;4.57;;;24.90;99.90;;;;;;5054763;28;20104;-75
2022/08/02 08:53:23;;;;;;;7.57;4.32;;;25.00;99.80;;;;;;5073036;28;20033;-75
2022/08/02 08:55:52;;;;;;;9.40;3.67;;;25.00;99.00;;;;;;5060476;28;20103;-76
2022/08/02 08:58:17;;;;;;;4.57;3.30;;;25.10;99.10;;;;;;5054064;28;20028;-76
2022/08/02 09:00:43;;;;;;;5.03;3.28;;;25.20;99.30;;;;;;5074939;28;20385;-75
2022/08/02 09:03:09;;;;;;;3.03;2.78;;;25.40;98.90;;;;;;5072561;28;20401;-76
2022/08/02 09:05:37;;;;;;;6.50;3.42;;;25.80;98.60;;;;;;5067677;28;20115;-79
2022/08/02 09:08:04;;;;;;;6.15;3.80;;;26.00;98.50;;;;;;5076914;28;20028;-76
2022/08/02 09:10:44;;;;;;;11.02;3.90;;;26.30;97.80;;;;;;5073329;28;20386;-80
2022/08/02 09:13:19;;;;;;;7.47;3.88;;;26.40;97.40;;;;;;5071931;28;20058;-75
2022/08/02 09:16:02;;;;;;;7.43;3.75;;;26.40;97.00;;;;;;5071844;28;20041;-75
2022/08/02 09:18:36;;;;;;;8.18;3.80;;;26.30;97.00;;;;;;5070972;28;20028;-79
2022/08/02 09:21:04;;;;;;;24.25;4.18;;;26.10;96.80;;;;;;5061863;28;20409;-75
2022/08/02 09:23:35;;;;;;;10.43;4.00;;;25.90;96.80;;;;;;5073614;28;20095;-81
2022/08/02 09:26:03;;;;;;;4.05;3.70;;;25.80;97.10;;;;;;5074559;28;20103;-76
2022/08/02 09:28:31;;;;;;;14.32;3.97;;;25.60;96.90;;;;;;5064999;28;20035;-80
2022/08/02 09:31:11;;;;;;;6.40;3.13;;;25.40;97.10;;;;;;5069597;28;20073;-75
2022/08/02 09:33:39;;;;;;;8.40;3.38;;;25.30;97.30;;;;;;5069815;28;20112;-75
2022/08/02 09:36:11;;;;;;;8.73;3.50;;;25.30;97.30;;;;;;5076445;28;20032;-73
2022/08/02 09:38:38;;;;;;;5.72;3.58;;;25.30;97.20;;;;;;5074261;28;20111;-75
2022/08/02 09:41:19;;;;;;;13.52;4.25;;;25.40;97.10;;;;;;5072429;28;20477;-75
2022/08/02 09:43:45;;;;;;;9.57;3.75;;;25.70;97.10;;;;;;5064538;28;20473;-74
2022/08/02 09:46:23;;;;;;;13.05;3.50;;;26.10;96.40;;;;;;5075923;28;20056;-73
2022/08/02 09:48:54;;;;;;;5.10;3.60;;;26.20;95.90;;;;;;5061501;28;20091;-77
2022/08/02 09:51:26;;;;;;;7.63;3.47;;;26.20;95.90;;;;;;5068875;28;20029;-74
2022/08/02 09:53:54;;;;;;;7.78;4.53;;;26.10;95.70;;;;;;5064767;28;20108;-74
2022/08/02 09:56:21;;;;;;;12.18;3.97;;;25.90;95.70;;;;;;5054602;28;20080;-75
2022/08/02 09:58:48;;;;;;;4.28;3.30;;;25.80;96.10;;;;;;5072383;28;20047;-75
2022/08/02 10:01:14;;;;;;;13.27;4.50;;;25.70;96.30;;;;;;5063947;28;20056;-76
2022/08/02 10:03:54;;;;;;;4.38;3.53;;;25.80;96.30;;;;;;5068675;28;20517;-74
2022/08/02 10:06:20;;;;;;;7.22;3.97;;;26.10;95.90;;;;;;5081358;28;20123;-76
2022/08/02 10:08:46;;;;;;;23.20;4.60;;;26.30;95.40;;;;;;5067601;28;20032;-75
2022/08/02 10:11:12;;;;;;;18.73;4.32;;;26.70;95.30;;;;;;5072415;28;20102;-75
2022/08/02 10:13:37;;;;;;;9.07;3.63;;;26.90;94.80;;;;;;5065167;28;20039;-75
2022/08/02 10:16:05;;;;;;;6.95;4.00;;;27.10;94.20;;;;;;5070751;28;20033;-75
2022/08/02 10:18:30;;;;;;;14.32;4.35;;;27.30;93.70;;;;;;5070696;28;20031;-81
2022/08/02 10:21:00;;;;;;;6.65;3.75;;;27.60;93.40;;;;;;5077498;28;20127;-76
2022/08/02 10:23:27;;;;;;;4.65;3.47;;;27.90;92.90;;;;;;5072402;28;20033;-80
2022/08/02 10:25:55;;;;;;;7.68;3.50;;;28.20;92.70;;;;;;5059881;28;20071;-74
2022/08/02 10:28:31;;;;;;;3.72;3.42;;;28.50;91.90;;;;;;5072186;28;20459;-75
2022/08/02 10:31:00;;;;;;;6.57;4.03;;;28.70;91.30;;;;;;5070961;28;20035;-75
2022/08/02 10:33:27;;;;;;;8.82;4.03;;;28.90;91.00;;;;;;5071842;28;20036;-76
2022/08/02 10:35:58;;;;;;;5.90;3.75;;;29.00;90.10;;;;;;5071100;28;20066;-75
2022/08/02 10:38:24;;;;;;;6.78;4.07;;;29.00;89.50;;;;;;5077417;28;20032;-75
2022/08/02 10:40:52;;;;;;;6.18;3.22;;;29.00;88.50;;;;;;5070701;28;20032;-76
2022/08/02 10:43:40;;;;;;;3.53;3.20;;;29.10;87.80;;;;;;5065558;28;20028;-76
2022/08/02 10:46:22;;;;;;;5.93;3.28;;;29.40;86.20;;;;;;5074709;28;20482;-75
2022/08/02 10:49:09;;;;;;;3.92;3.10;;;29.50;85.50;;;;;;5078478;28;20048;-76
2022/08/02 10:51:53;;;;;;;4.95;2.78;;;29.60;84.00;;;;;;5070154;28;20033;-75
2022/08/02 10:54:21;;;;;;;4.40;3.05;;;29.90;83.00;;;;;;5070607;28;20398;-79
2022/08/02 10:56:48;;;;;;;4.05;3.00;;;30.00;82.70;;;;;;5047560;28;20039;-79
2022/08/02 10:59:26;;;;;;;5.78;2.72;;;30.10;80.60;;;;;;5066907;28;20076;-79
2022/08/02 11:01:59;;;;;;;5.00;3.10;;;30.10;79.40;;;;;;5065273;28;20024;-77
2022/08/02 11:04:46;;;;;;;3.42;2.75;;;30.00;79.40;;;;;;5062409;28;20036;-77
2022/08/02 11:07:13;;;;;;;4.85;2.97;;;29.80;78.50;;;;;;5037091;28;20060;-77
2022/08/02 11:09:40;;;;;;;3.88;2.63;;;29.50;78.60;;;;;;5060464;28;20074;-76
2022/08/02 11:12:07;;;;;;;4.47;2.70;;;29.20;79.50;;;;;;5070921;28;20028;-76
2022/08/02 11:14:36;;;;;;;3.92;3.15;;;29.00;79.90;;;;;;5058542;28;20041;-79
2022/08/02 11:17:04;;;;;;;3.35;2.80;;;28.90;80.80;;;;;;5070109;28;20032;-76
2022/08/02 11:19:29;;;;;;;4.22;3.00;;;28.80;79.90;;;;;;5071759;28;20050;-79
2022/08/02 11:22:15;;;;;;;6.55;3.03;;;28.60;80.50;;;;;;5073019;28;20493;-76
2022/08/02 11:24:41;;;;;;;18.80;3.80;;;28.50;80.70;;;;;;5060579;28;20032;-76
2022/08/02 11:27:15;;;;;;;8.07;3.33;;;28.40;81.20;;;;;;5064673;28;20484;-77
2022/08/02 11:29:43;;;;;;;23.33;4.20;;;28.40;81.70;;;;;;5076757;28;20041;-75
2022/08/02 11:32:21;;;;;;;4.50;3.40;;;28.70;80.90;;;;;;5073323;28;20092;-78
2022/08/02 11:34:49;;;;;;;3.42;3.13;;;28.90;79.30;;;;;;5067324;28;20047;-77
2022/08/02 11:37:31;;;;;;;4.53;3.15;;;29.20;79.20;;;;;;5069738;28;20041;-76
2022/08/02 11:39:57;;;;;;;3.92;2.95;;;29.40;78.50;;;;;;5066924;28;20094;-74
2022/08/02 11:42:36;;;;;;;3.83;3.03;;;29.60;77.90;;;;;;5063266;28;20028;-77
2022/08/02 11:45:04;;;;;;;4.22;3.50;;;29.80;77.30;;;;;;5069031;28;20041;-76
2022/08/02 11:47:30;;;;;;;2.83;2.45;;;30.00;76.80;;;;;;5057573;28;20032;-80
2022/08/02 11:50:09;;;;;;;2.95;2.75;;;30.10;76.90;;;;;;5064182;28;20028;-76
2022/08/02 11:52:35;;;;;;;5.15;2.97;;;30.20;76.20;;;;;;5070113;28;20484;-78
2022/08/02 11:55:01;;;;;;;5.90;3.10;;;30.10;75.40;;;;;;5076315;28;20114;-76
2022/08/02 11:57:27;;;;;;;4.97;3.33;;;29.90;75.80;;;;;;5069175;28;20068;-77
2022/08/02 11:59:54;;;;;;;6.07;3.47;;;30.00;76.00;;;;;;5066342;28;20696;-76
2022/08/02 12:02:28;;;;;;;2.90;2.70;;;30.20;76.00;;;;;;5069903;28;20027;-77
2022/08/02 12:05:05;;;;;;;6.00;3.15;;;30.30;75.90;;;;;;5069058;28;20744;-77
2022/08/02 12:07:34;;;;;;;4.85;2.80;;;30.50;75.40;;;;;;5062485;28;20035;-79
2022/08/02 12:10:01;;;;;;;5.15;2.70;;;30.60;75.40;;;;;;5069758;28;20051;-77
2022/08/02 12:12:27;;;;;;;3.97;2.88;;;30.60;75.00;;;;;;5071490;28;20083;-78
2022/08/02 12:14:52;;;;;;;4.05;2.92;;;30.50;73.40;;;;;;5064372;28;20051;-77
2022/08/02 12:20:12;;;;;;;3.30;3.00;;;30.10;73.70;;;;;;5063593;28;20108;-76
2022/08/02 12:22:39;;;;;;;5.63;2.88;;;30.30;73.60;;;;;;5063357;28;20037;-77
2022/08/02 12:25:17;;;;;;;3.83;2.78;;;30.40;74.10;;;;;;5064963;28;20070;-77
2022/08/02 12:27:43;;;;;;;3.30;3.00;;;30.60;72.70;;;;;;5070865;28;20104;-75
2022/08/02 12:30:10;;;;;;;3.38;3.00;;;30.80;72.10;;;;;;5070173;28;20115;-74
2022/08/02 12:32:37;;;;;;;3.85;3.00;;;30.80;71.60;;;;;;5070665;28;20079;-76
2022/08/02 12:35:12;;;;;;;6.18;3.47;;;30.90;71.70;;;;;;5064720;28;20041;-75
2022/08/02 12:37:40;;;;;;;4.10;3.00;;;31.20;71.30;;;;;;5061203;28;20028;-76
2022/08/02 12:40:24;;;;;;;3.10;2.90;;;31.60;71.00;;;;;;5056738;28;20028;-75
2022/08/02 12:42:59;;;;;;;6.50;3.25;;;32.00;69.60;;;;;;5071850;28;20116;-76
2022/08/02 12:45:27;;;;;;;3.20;2.90;;;32.30;68.10;;;;;;5066240;28;20124;-78
2022/08/02 12:47:55;;;;;;;4.55;3.30;;;32.30;68.70;;;;;;5072182;28;20032;-74
2022/08/02 12:50:28;;;;;;;4.20;3.03;;;32.30;67.90;;;;;;5073824;28;20537;-75
2022/08/02 12:53:31;;;;;;;3.28;3.00;;;32.30;68.00;;;;;;5074309;28;20086;-79
2022/08/02 12:56:00;;;;;;;3.80;3.10;;;32.10;67.30;;;;;;5029981;28;20055;-76
2022/08/02 12:58:25;;;;;;;3.50;3.20;;;31.80;66.60;;;;;;5065945;28;20032;-77
2022/08/02 13:01:00;;;;;;;3.85;2.80;;;31.50;67.60;;;;;;5077133;28;20068;-75
2022/08/02 13:03:27;;;;;;;3.30;3.03;;;31.50;67.60;;;;;;5076635;28;20110;-75